sensor_id;sensor_type;location;lat;lon;timestamp;P1;durP1;ratioP1;P2;durP2;ratioP2
40953;SDS011;26686;50.130;8.710;2022-10-13T00:02:31;16.67;;;15.02;;
40953;SDS011;26686;50.130;8.710;2022-10-13T00:07:32;18.50;;;14.85;;
40953;SDS011;26686;50.130;8.710;2022-10-13T00:12:34;16.52;;;14.73;;
40953;SDS011;26686;50.130;8.710;2022-10-13T00:17:36;16.70;;;14.32;;
40953;SDS011;26686;50.130;8.710;2022-10-13T00:22:37;16.88;;;15.07;;
40953;SDS011;26686;50.130;8.710;2022-10-13T00:27:39;15.93;;;13.45;;
40953;SDS011;26686;50.130;8.710;2022-10-13T00:32:40;18.02;;;13.45;;
40953;SDS011;26686;50.130;8.710;2022-10-13T00:37:41;17.10;;;14.40;;
40953;SDS011;26686;50.130;8.710;2022-10-13T00:42:43;16.58;;;14.55;;
40953;SDS011;26686;50.130;8.710;2022-10-13T00:47:45;17.33;;;13.52;;
40953;SDS011;26686;50.130;8.710;2022-10-13T00:52:50;15.32;;;13.68;;
40953;SDS011;26686;50.130;8.710;2022-10-13T00:57:53;14.50;;;12.40;;
40953;SDS011;26686;50.130;8.710;2022-10-13T01:02:56;17.38;;;12.93;;
40953;SDS011;26686;50.130;8.710;2022-10-13T01:07:57;18.65;;;14.35;;
40953;SDS011;26686;50.130;8.710;2022-10-13T01:13:02;14.68;;;12.98;;
40953;SDS011;26686;50.130;8.710;2022-10-13T01:34:43;17.00;;;13.25;;
40953;SDS011;26686;50.130;8.710;2022-10-13T01:45:18;15.82;;;13.50;;
40953;SDS011;26686;50.130;8.710;2022-10-13T01:50:23;14.85;;;13.35;;
40953;SDS011;26686;50.130;8.710;2022-10-13T01:55:26;15.93;;;13.45;;
40953;SDS011;26686;50.130;8.710;2022-10-13T02:00:29;15.68;;;12.75;;
40953;SDS011;26686;50.130;8.710;2022-10-13T02:05:44;15.55;;;13.05;;
40953;SDS011;26686;50.130;8.710;2022-10-13T02:10:51;13.90;;;12.50;;
40953;SDS011;26686;50.130;8.710;2022-10-13T02:15:59;15.02;;;13.52;;
40953;SDS011;26686;50.130;8.710;2022-10-13T02:21:01;17.63;;;13.95;;
40953;SDS011;26686;50.130;8.710;2022-10-13T02:26:04;17.20;;;14.02;;
40953;SDS011;26686;50.130;8.710;2022-10-13T02:31:06;13.80;;;12.50;;
40953;SDS011;26686;50.130;8.710;2022-10-13T02:36:08;14.60;;;13.20;;
40953;SDS011;26686;50.130;8.710;2022-10-13T02:41:09;14.95;;;13.43;;
40953;SDS011;26686;50.130;8.710;2022-10-13T02:46:12;15.75;;;14.15;;
40953;SDS011;26686;50.130;8.710;2022-10-13T02:51:13;15.15;;;13.70;;
40953;SDS011;26686;50.130;8.710;2022-10-13T02:56:14;15.95;;;14.25;;
40953;SDS011;26686;50.130;8.710;2022-10-13T03:01:16;17.10;;;15.27;;
40953;SDS011;26686;50.130;8.710;2022-10-13T03:06:17;17.08;;;15.05;;
40953;SDS011;26686;50.130;8.710;2022-10-13T03:11:18;16.42;;;14.73;;
40953;SDS011;26686;50.130;8.710;2022-10-13T03:16:20;15.02;;;13.60;;
40953;SDS011;26686;50.130;8.710;2022-10-13T03:21:22;15.43;;;13.80;;
40953;SDS011;26686;50.130;8.710;2022-10-13T03:26:23;13.68;;;12.25;;
40953;SDS011;26686;50.130;8.710;2022-10-13T03:31:24;13.32;;;12.02;;
40953;SDS011;26686;50.130;8.710;2022-10-13T03:36:26;13.45;;;11.75;;
40953;SDS011;26686;50.130;8.710;2022-10-13T03:41:27;13.82;;;12.43;;
40953;SDS011;26686;50.130;8.710;2022-10-13T03:46:29;17.38;;;14.43;;
40953;SDS011;26686;50.130;8.710;2022-10-13T03:51:30;15.07;;;13.65;;
40953;SDS011;26686;50.130;8.710;2022-10-13T03:56:31;15.30;;;13.05;;
40953;SDS011;26686;50.130;8.710;2022-10-13T04:01:33;14.55;;;13.00;;
40953;SDS011;26686;50.130;8.710;2022-10-13T04:06:34;13.70;;;12.40;;
40953;SDS011;26686;50.130;8.710;2022-10-13T04:11:36;14.25;;;12.85;;
40953;SDS011;26686;50.130;8.710;2022-10-13T04:16:37;14.02;;;12.60;;
40953;SDS011;26686;50.130;8.710;2022-10-13T04:21:40;15.38;;;13.73;;
40953;SDS011;26686;50.130;8.710;2022-10-13T04:26:43;13.13;;;11.77;;
40953;SDS011;26686;50.130;8.710;2022-10-13T04:31:45;13.23;;;12.02;;
40953;SDS011;26686;50.130;8.710;2022-10-13T04:36:48;14.27;;;12.93;;
40953;SDS011;26686;50.130;8.710;2022-10-13T04:41:51;14.02;;;12.60;;
40953;SDS011;26686;50.130;8.710;2022-10-13T04:46:52;18.10;;;13.93;;
40953;SDS011;26686;50.130;8.710;2022-10-13T04:51:53;16.48;;;14.07;;
40953;SDS011;26686;50.130;8.710;2022-10-13T04:56:55;14.85;;;13.23;;
40953;SDS011;26686;50.130;8.710;2022-10-13T05:01:56;15.93;;;12.50;;
40953;SDS011;26686;50.130;8.710;2022-10-13T05:06:57;15.63;;;12.35;;
40953;SDS011;26686;50.130;8.710;2022-10-13T05:12:17;16.05;;;13.52;;
40953;SDS011;26686;50.130;8.710;2022-10-13T05:17:19;15.52;;;12.05;;
40953;SDS011;26686;50.130;8.710;2022-10-13T05:22:21;13.18;;;11.88;;
40953;SDS011;26686;50.130;8.710;2022-10-13T05:27:22;13.63;;;10.80;;
40953;SDS011;26686;50.130;8.710;2022-10-13T05:32:24;12.30;;;10.90;;
40953;SDS011;26686;50.130;8.710;2022-10-13T05:37:25;13.50;;;12.15;;
40953;SDS011;26686;50.130;8.710;2022-10-13T05:42:27;13.43;;;12.13;;
40953;SDS011;26686;50.130;8.710;2022-10-13T05:47:30;14.30;;;12.82;;
40953;SDS011;26686;50.130;8.710;2022-10-13T05:52:31;13.50;;;12.10;;
40953;SDS011;26686;50.130;8.710;2022-10-13T05:57:34;16.35;;;12.70;;
40953;SDS011;26686;50.130;8.710;2022-10-13T06:08:18;18.95;;;14.90;;
40953;SDS011;26686;50.130;8.710;2022-10-13T06:13:19;16.98;;;13.30;;
40953;SDS011;26686;50.130;8.710;2022-10-13T06:18:20;16.67;;;13.60;;
40953;SDS011;26686;50.130;8.710;2022-10-13T06:23:22;19.05;;;13.52;;
40953;SDS011;26686;50.130;8.710;2022-10-13T06:28:24;17.85;;;14.05;;
40953;SDS011;26686;50.130;8.710;2022-10-13T06:33:27;16.83;;;13.13;;
40953;SDS011;26686;50.130;8.710;2022-10-13T06:38:28;17.00;;;13.05;;
40953;SDS011;26686;50.130;8.710;2022-10-13T06:43:30;19.42;;;15.95;;
40953;SDS011;26686;50.130;8.710;2022-10-13T06:48:40;18.88;;;14.50;;
40953;SDS011;26686;50.130;8.710;2022-10-13T06:53:41;16.70;;;13.52;;
40953;SDS011;26686;50.130;8.710;2022-10-13T06:58:43;17.98;;;12.75;;
40953;SDS011;26686;50.130;8.710;2022-10-13T07:03:48;18.05;;;12.60;;
40953;SDS011;26686;50.130;8.710;2022-10-13T07:08:50;16.90;;;11.93;;
40953;SDS011;26686;50.130;8.710;2022-10-13T07:13:52;17.23;;;13.85;;
40953;SDS011;26686;50.130;8.710;2022-10-13T07:18:54;20.80;;;16.77;;
40953;SDS011;26686;50.130;8.710;2022-10-13T07:23:55;19.85;;;15.90;;
40953;SDS011;26686;50.130;8.710;2022-10-13T07:28:56;21.98;;;15.85;;
40953;SDS011;26686;50.130;8.710;2022-10-13T07:33:58;22.05;;;16.30;;
40953;SDS011;26686;50.130;8.710;2022-10-13T07:39:00;20.05;;;15.48;;
40953;SDS011;26686;50.130;8.710;2022-10-13T07:44:03;18.83;;;14.70;;
40953;SDS011;26686;50.130;8.710;2022-10-13T07:49:04;17.58;;;15.07;;
40953;SDS011;26686;50.130;8.710;2022-10-13T07:54:06;17.75;;;14.55;;
40953;SDS011;26686;50.130;8.710;2022-10-13T07:59:07;18.05;;;15.23;;
40953;SDS011;26686;50.130;8.710;2022-10-13T08:04:09;18.60;;;14.75;;
40953;SDS011;26686;50.130;8.710;2022-10-13T08:09:10;19.95;;;15.02;;
40953;SDS011;26686;50.130;8.710;2022-10-13T08:14:12;21.88;;;15.40;;
40953;SDS011;26686;50.130;8.710;2022-10-13T08:19:13;26.23;;;16.30;;
40953;SDS011;26686;50.130;8.710;2022-10-13T08:24:16;23.08;;;16.25;;
40953;SDS011;26686;50.130;8.710;2022-10-13T08:29:18;24.02;;;16.13;;
40953;SDS011;26686;50.130;8.710;2022-10-13T08:34:23;20.88;;;15.30;;
40953;SDS011;26686;50.130;8.710;2022-10-13T08:39:25;22.52;;;15.60;;
40953;SDS011;26686;50.130;8.710;2022-10-13T08:44:40;19.35;;;16.20;;
40953;SDS011;26686;50.130;8.710;2022-10-13T08:50:06;21.40;;;16.98;;
40953;SDS011;26686;50.130;8.710;2022-10-13T08:55:21;21.55;;;17.50;;
40953;SDS011;26686;50.130;8.710;2022-10-13T09:00:27;20.60;;;18.40;;
40953;SDS011;26686;50.130;8.710;2022-10-13T09:05:36;21.17;;;18.30;;
40953;SDS011;26686;50.130;8.710;2022-10-13T09:10:46;26.02;;;19.17;;
40953;SDS011;26686;50.130;8.710;2022-10-13T09:15:49;22.08;;;18.77;;
40953;SDS011;26686;50.130;8.710;2022-10-13T09:20:50;29.45;;;21.02;;
40953;SDS011;26686;50.130;8.710;2022-10-13T09:26:08;28.27;;;20.40;;
40953;SDS011;26686;50.130;8.710;2022-10-13T09:31:25;27.55;;;21.30;;
40953;SDS011;26686;50.130;8.710;2022-10-13T09:36:28;31.60;;;22.48;;
40953;SDS011;26686;50.130;8.710;2022-10-13T09:41:31;32.67;;;22.42;;
40953;SDS011;26686;50.130;8.710;2022-10-13T09:46:38;29.48;;;22.40;;
40953;SDS011;26686;50.130;8.710;2022-10-13T09:56:59;27.77;;;21.35;;
40953;SDS011;26686;50.130;8.710;2022-10-13T10:07:37;29.88;;;23.40;;
40953;SDS011;26686;50.130;8.710;2022-10-13T10:12:39;28.80;;;21.90;;
40953;SDS011;26686;50.130;8.710;2022-10-13T10:17:43;29.25;;;21.88;;
40953;SDS011;26686;50.130;8.710;2022-10-13T10:22:58;27.42;;;21.73;;
40953;SDS011;26686;50.130;8.710;2022-10-13T10:33:11;25.88;;;20.30;;
40953;SDS011;26686;50.130;8.710;2022-10-13T10:38:38;24.92;;;21.30;;
40953;SDS011;26686;50.130;8.710;2022-10-13T10:49:26;28.43;;;22.13;;
40953;SDS011;26686;50.130;8.710;2022-10-13T11:04:59;20.98;;;18.73;;
40953;SDS011;26686;50.130;8.710;2022-10-13T11:25:38;21.92;;;19.25;;
40953;SDS011;26686;50.130;8.710;2022-10-13T11:35:55;21.45;;;18.83;;
40953;SDS011;26686;50.130;8.710;2022-10-13T11:41:11;21.65;;;17.88;;
40953;SDS011;26686;50.130;8.710;2022-10-13T11:56:49;17.73;;;15.83;;
40953;SDS011;26686;50.130;8.710;2022-10-13T12:01:54;21.73;;;16.48;;
40953;SDS011;26686;50.130;8.710;2022-10-13T12:07:00;18.88;;;16.17;;
40953;SDS011;26686;50.130;8.710;2022-10-13T12:12:04;17.67;;;15.45;;
40953;SDS011;26686;50.130;8.710;2022-10-13T12:17:48;17.92;;;14.32;;
40953;SDS011;26686;50.130;8.710;2022-10-13T12:22:47;17.08;;;14.25;;
40953;SDS011;26686;50.130;8.710;2022-10-13T12:27:50;13.93;;;12.52;;
40953;SDS011;26686;50.130;8.710;2022-10-13T12:32:58;14.93;;;11.57;;
40953;SDS011;26686;50.130;8.710;2022-10-13T12:38:02;12.70;;;11.37;;
40953;SDS011;26686;50.130;8.710;2022-10-13T12:43:08;13.80;;;10.20;;
40953;SDS011;26686;50.130;8.710;2022-10-13T12:53:37;15.90;;;11.65;;
40953;SDS011;26686;50.130;8.710;2022-10-13T12:58:41;16.58;;;11.63;;
40953;SDS011;26686;50.130;8.710;2022-10-13T13:03:43;15.77;;;13.23;;
40953;SDS011;26686;50.130;8.710;2022-10-13T13:08:44;16.55;;;12.90;;
40953;SDS011;26686;50.130;8.710;2022-10-13T13:13:46;15.30;;;13.52;;
40953;SDS011;26686;50.130;8.710;2022-10-13T13:18:48;17.85;;;13.13;;
40953;SDS011;26686;50.130;8.710;2022-10-13T13:23:50;15.68;;;12.90;;
40953;SDS011;26686;50.130;8.710;2022-10-13T13:28:54;15.43;;;13.68;;
40953;SDS011;26686;50.130;8.710;2022-10-13T13:33:56;15.27;;;12.13;;
40953;SDS011;26686;50.130;8.710;2022-10-13T13:38:57;15.77;;;13.73;;
40953;SDS011;26686;50.130;8.710;2022-10-13T13:43:59;15.57;;;13.07;;
40953;SDS011;26686;50.130;8.710;2022-10-13T13:49:01;15.65;;;13.65;;
40953;SDS011;26686;50.130;8.710;2022-10-13T13:54:03;15.07;;;12.98;;
40953;SDS011;26686;50.130;8.710;2022-10-13T13:59:04;18.17;;;13.25;;
40953;SDS011;26686;50.130;8.710;2022-10-13T14:04:06;17.20;;;12.05;;
40953;SDS011;26686;50.130;8.710;2022-10-13T14:09:07;14.00;;;12.60;;
40953;SDS011;26686;50.130;8.710;2022-10-13T14:14:09;17.00;;;13.23;;
40953;SDS011;26686;50.130;8.710;2022-10-13T14:19:10;18.52;;;14.38;;
40953;SDS011;26686;50.130;8.710;2022-10-13T14:24:11;14.75;;;13.15;;
40953;SDS011;26686;50.130;8.710;2022-10-13T14:29:13;20.92;;;14.98;;
40953;SDS011;26686;50.130;8.710;2022-10-13T14:34:14;16.02;;;13.90;;
40953;SDS011;26686;50.130;8.710;2022-10-13T14:39:16;14.68;;;12.95;;
40953;SDS011;26686;50.130;8.710;2022-10-13T14:44:17;17.83;;;13.65;;
40953;SDS011;26686;50.130;8.710;2022-10-13T14:49:18;15.55;;;13.90;;
40953;SDS011;26686;50.130;8.710;2022-10-13T14:54:20;17.95;;;13.50;;
40953;SDS011;26686;50.130;8.710;2022-10-13T14:59:21;14.85;;;13.38;;
40953;SDS011;26686;50.130;8.710;2022-10-13T15:04:22;15.25;;;13.70;;
40953;SDS011;26686;50.130;8.710;2022-10-13T15:09:24;16.25;;;13.18;;
40953;SDS011;26686;50.130;8.710;2022-10-13T15:14:45;15.18;;;12.98;;
40953;SDS011;26686;50.130;8.710;2022-10-13T15:19:46;16.60;;;13.32;;
40953;SDS011;26686;50.130;8.710;2022-10-13T15:24:48;17.95;;;13.38;;
40953;SDS011;26686;50.130;8.710;2022-10-13T15:29:49;14.55;;;13.18;;
40953;SDS011;26686;50.130;8.710;2022-10-13T15:34:50;16.58;;;13.77;;
40953;SDS011;26686;50.130;8.710;2022-10-13T15:39:52;15.82;;;13.00;;
40953;SDS011;26686;50.130;8.710;2022-10-13T15:44:57;14.48;;;12.52;;
40953;SDS011;26686;50.130;8.710;2022-10-13T15:50:14;14.43;;;12.88;;
40953;SDS011;26686;50.130;8.710;2022-10-13T15:55:16;16.52;;;12.98;;
40953;SDS011;26686;50.130;8.710;2022-10-13T16:00:17;16.02;;;13.65;;
40953;SDS011;26686;50.130;8.710;2022-10-13T16:05:19;16.00;;;14.25;;
40953;SDS011;26686;50.130;8.710;2022-10-13T16:10:20;16.65;;;15.00;;
40953;SDS011;26686;50.130;8.710;2022-10-13T16:15:22;17.23;;;15.27;;
40953;SDS011;26686;50.130;8.710;2022-10-13T16:20:23;18.25;;;15.45;;
40953;SDS011;26686;50.130;8.710;2022-10-13T16:25:24;20.50;;;16.73;;
40953;SDS011;26686;50.130;8.710;2022-10-13T16:30:26;19.33;;;17.23;;
40953;SDS011;26686;50.130;8.710;2022-10-13T16:35:27;18.45;;;16.15;;
40953;SDS011;26686;50.130;8.710;2022-10-13T16:40:29;20.23;;;17.70;;
40953;SDS011;26686;50.130;8.710;2022-10-13T16:45:31;23.30;;;19.77;;
40953;SDS011;26686;50.130;8.710;2022-10-13T16:50:52;23.23;;;20.63;;
40953;SDS011;26686;50.130;8.710;2022-10-13T16:55:53;28.50;;;22.10;;
40953;SDS011;26686;50.130;8.710;2022-10-13T17:01:05;26.98;;;21.58;;
40953;SDS011;26686;50.130;8.710;2022-10-13T17:06:11;22.33;;;20.10;;
40953;SDS011;26686;50.130;8.710;2022-10-13T17:11:15;23.50;;;21.05;;
40953;SDS011;26686;50.130;8.710;2022-10-13T17:16:18;23.73;;;21.30;;
40953;SDS011;26686;50.130;8.710;2022-10-13T17:21:20;25.23;;;22.83;;
40953;SDS011;26686;50.130;8.710;2022-10-13T17:26:22;25.55;;;21.95;;
40953;SDS011;26686;50.130;8.710;2022-10-13T17:31:23;27.35;;;22.73;;
40953;SDS011;26686;50.130;8.710;2022-10-13T17:36:26;26.23;;;23.48;;
40953;SDS011;26686;50.130;8.710;2022-10-13T17:41:29;24.47;;;21.83;;
40953;SDS011;26686;50.130;8.710;2022-10-13T17:46:30;24.05;;;21.63;;
40953;SDS011;26686;50.130;8.710;2022-10-13T17:51:39;26.25;;;23.42;;
40953;SDS011;26686;50.130;8.710;2022-10-13T17:56:41;28.52;;;25.58;;
40953;SDS011;26686;50.130;8.710;2022-10-13T18:01:43;28.75;;;23.67;;
40953;SDS011;26686;50.130;8.710;2022-10-13T18:06:45;26.13;;;23.30;;
40953;SDS011;26686;50.130;8.710;2022-10-13T18:11:47;23.17;;;20.95;;
40953;SDS011;26686;50.130;8.710;2022-10-13T18:16:51;25.42;;;20.30;;
40953;SDS011;26686;50.130;8.710;2022-10-13T18:21:53;22.85;;;19.88;;
40953;SDS011;26686;50.130;8.710;2022-10-13T18:26:54;22.05;;;19.88;;
40953;SDS011;26686;50.130;8.710;2022-10-13T18:31:55;25.10;;;21.92;;
40953;SDS011;26686;50.130;8.710;2022-10-13T18:36:56;22.33;;;19.92;;
40953;SDS011;26686;50.130;8.710;2022-10-13T18:41:58;23.52;;;21.02;;
40953;SDS011;26686;50.130;8.710;2022-10-13T18:47:00;23.83;;;21.42;;
40953;SDS011;26686;50.130;8.710;2022-10-13T18:52:01;25.45;;;22.88;;
40953;SDS011;26686;50.130;8.710;2022-10-13T18:57:03;24.50;;;20.02;;
40953;SDS011;26686;50.130;8.710;2022-10-13T19:02:04;24.50;;;20.77;;
40953;SDS011;26686;50.130;8.710;2022-10-13T19:07:05;25.10;;;22.27;;
40953;SDS011;26686;50.130;8.710;2022-10-13T19:12:06;24.65;;;22.13;;
40953;SDS011;26686;50.130;8.710;2022-10-13T19:17:08;26.17;;;23.10;;
40953;SDS011;26686;50.130;8.710;2022-10-13T19:22:09;22.42;;;19.95;;
40953;SDS011;26686;50.130;8.710;2022-10-13T19:27:10;25.20;;;22.48;;
40953;SDS011;26686;50.130;8.710;2022-10-13T19:32:12;26.42;;;23.58;;
40953;SDS011;26686;50.130;8.710;2022-10-13T19:37:13;28.08;;;23.17;;
40953;SDS011;26686;50.130;8.710;2022-10-13T19:42:16;24.30;;;21.63;;
40953;SDS011;26686;50.130;8.710;2022-10-13T19:47:17;30.45;;;23.08;;
40953;SDS011;26686;50.130;8.710;2022-10-13T19:52:19;27.50;;;22.30;;
40953;SDS011;26686;50.130;8.710;2022-10-13T19:57:21;22.75;;;20.48;;
40953;SDS011;26686;50.130;8.710;2022-10-13T20:02:23;23.90;;;20.98;;
40953;SDS011;26686;50.130;8.710;2022-10-13T20:07:24;21.33;;;17.27;;
40953;SDS011;26686;50.130;8.710;2022-10-13T20:12:25;18.30;;;16.10;;
40953;SDS011;26686;50.130;8.710;2022-10-13T20:17:26;18.08;;;16.02;;
40953;SDS011;26686;50.130;8.710;2022-10-13T20:22:28;18.05;;;16.17;;
40953;SDS011;26686;50.130;8.710;2022-10-13T20:27:29;18.48;;;15.65;;
40953;SDS011;26686;50.130;8.710;2022-10-13T20:32:31;19.23;;;16.90;;
40953;SDS011;26686;50.130;8.710;2022-10-13T20:37:32;18.52;;;15.63;;
40953;SDS011;26686;50.130;8.710;2022-10-13T20:42:34;19.42;;;16.92;;
40953;SDS011;26686;50.130;8.710;2022-10-13T20:47:35;21.75;;;16.70;;
40953;SDS011;26686;50.130;8.710;2022-10-13T20:52:36;16.67;;;14.90;;
40953;SDS011;26686;50.130;8.710;2022-10-13T20:57:37;17.00;;;13.85;;
40953;SDS011;26686;50.130;8.710;2022-10-13T21:02:39;17.85;;;14.30;;
40953;SDS011;26686;50.130;8.710;2022-10-13T21:07:40;15.27;;;13.68;;
40953;SDS011;26686;50.130;8.710;2022-10-13T21:12:42;14.77;;;13.20;;
40953;SDS011;26686;50.130;8.710;2022-10-13T21:17:43;14.10;;;12.35;;
40953;SDS011;26686;50.130;8.710;2022-10-13T21:22:45;15.00;;;13.35;;
40953;SDS011;26686;50.130;8.710;2022-10-13T21:27:47;13.73;;;11.30;;
40953;SDS011;26686;50.130;8.710;2022-10-13T21:32:48;13.77;;;12.35;;
40953;SDS011;26686;50.130;8.710;2022-10-13T21:37:49;13.27;;;11.02;;
40953;SDS011;26686;50.130;8.710;2022-10-13T21:42:51;14.10;;;12.48;;
40953;SDS011;26686;50.130;8.710;2022-10-13T21:47:52;14.38;;;12.18;;
40953;SDS011;26686;50.130;8.710;2022-10-13T21:52:53;14.35;;;12.95;;
40953;SDS011;26686;50.130;8.710;2022-10-13T21:57:55;13.77;;;12.45;;
40953;SDS011;26686;50.130;8.710;2022-10-13T22:03:01;13.40;;;12.07;;
40953;SDS011;26686;50.130;8.710;2022-10-13T22:08:03;14.02;;;12.57;;
40953;SDS011;26686;50.130;8.710;2022-10-13T22:13:04;15.57;;;13.95;;
40953;SDS011;26686;50.130;8.710;2022-10-13T22:18:05;17.15;;;15.27;;
40953;SDS011;26686;50.130;8.710;2022-10-13T22:23:07;15.48;;;13.85;;
40953;SDS011;26686;50.130;8.710;2022-10-13T22:28:08;16.63;;;15.02;;
40953;SDS011;26686;50.130;8.710;2022-10-13T22:33:09;17.08;;;15.05;;
40953;SDS011;26686;50.130;8.710;2022-10-13T22:38:11;15.70;;;14.10;;
40953;SDS011;26686;50.130;8.710;2022-10-13T22:43:14;16.42;;;14.15;;
40953;SDS011;26686;50.130;8.710;2022-10-13T22:48:15;15.60;;;14.10;;
40953;SDS011;26686;50.130;8.710;2022-10-13T22:53:16;16.55;;;14.32;;
40953;SDS011;26686;50.130;8.710;2022-10-13T22:58:18;17.73;;;15.15;;
40953;SDS011;26686;50.130;8.710;2022-10-13T23:03:19;16.42;;;14.52;;
40953;SDS011;26686;50.130;8.710;2022-10-13T23:08:20;16.70;;;14.93;;
40953;SDS011;26686;50.130;8.710;2022-10-13T23:13:22;18.30;;;16.10;;
40953;SDS011;26686;50.130;8.710;2022-10-13T23:18:24;18.67;;;16.77;;
40953;SDS011;26686;50.130;8.710;2022-10-13T23:23:25;18.60;;;16.73;;
40953;SDS011;26686;50.130;8.710;2022-10-13T23:28:27;18.98;;;17.17;;
40953;SDS011;26686;50.130;8.710;2022-10-13T23:33:28;19.75;;;17.63;;
40953;SDS011;26686;50.130;8.710;2022-10-13T23:38:31;18.77;;;16.77;;
40953;SDS011;26686;50.130;8.710;2022-10-13T23:43:32;20.42;;;18.10;;
40953;SDS011;26686;50.130;8.710;2022-10-13T23:48:34;17.67;;;15.85;;
40953;SDS011;26686;50.130;8.710;2022-10-13T23:53:35;20.05;;;17.17;;
40953;SDS011;26686;50.130;8.710;2022-10-13T23:58:39;18.95;;;17.00;;
